createdAt,value
2019-05-23T00:01:23.535Z,99.90
2019-05-23T00:04:28.550Z,99.90
2019-05-23T00:07:20.949Z,99.90
2019-05-23T00:10:10.726Z,99.90
2019-05-23T00:12:49.413Z,99.90
2019-05-23T00:15:29.834Z,99.90
2019-05-23T00:17:59.530Z,99.90
2019-05-23T00:20:29.790Z,99.90
2019-05-23T00:23:00.223Z,99.90
2019-05-23T00:25:31.085Z,99.90
2019-05-23T00:28:01.357Z,99.90
2019-05-23T00:30:44.252Z,99.90
2019-05-23T00:33:16.491Z,99.90
2019-05-23T00:35:47.702Z,99.90
2019-05-23T00:38:17.851Z,99.90
2019-05-23T00:40:48.324Z,99.90
2019-05-23T00:43:19.834Z,99.90
2019-05-23T00:45:49.795Z,99.90
2019-05-23T00:48:19.965Z,99.90
2019-05-23T00:50:50.721Z,99.90
2019-05-23T00:53:21.062Z,99.90
2019-05-23T00:55:51.166Z,99.90
2019-05-23T00:58:20.779Z,99.90
2019-05-23T01:00:51.133Z,99.90
2019-05-23T01:03:22.433Z,99.90
2019-05-23T01:05:51.461Z,99.90
2019-05-23T01:08:21.551Z,99.90
2019-05-23T01:10:52.005Z,99.90
2019-05-23T01:13:22.935Z,99.90
2019-05-23T01:15:53.459Z,99.90
2019-05-23T01:18:23.237Z,99.90
2019-05-23T01:20:57.528Z,99.90
2019-05-23T01:23:28.889Z,99.90
2019-05-23T01:25:58.394Z,99.90
2019-05-23T01:28:27.684Z,99.90
2019-05-23T01:30:58.909Z,99.90
2019-05-23T01:33:29.266Z,99.90
2019-05-23T01:35:59.074Z,99.90
2019-05-23T01:38:28.419Z,99.90
2019-05-23T01:40:59.427Z,99.90
2019-05-23T01:43:30.474Z,99.90
2019-05-23T01:46:00.223Z,99.90
2019-05-23T01:48:29.706Z,99.90
2019-05-23T01:50:59.062Z,99.90
2019-05-23T01:53:29.587Z,99.90
2019-05-23T01:55:59.254Z,99.90
2019-05-23T01:58:28.986Z,99.90
2019-05-23T02:00:59.703Z,99.90
2019-05-23T02:03:29.223Z,99.90
2019-05-23T02:05:59.833Z,99.90
2019-05-23T02:08:29.203Z,99.90
2019-05-23T02:10:59.734Z,99.90
2019-05-23T02:13:29.070Z,99.90
2019-05-23T02:15:58.584Z,99.90
2019-05-23T02:18:28.208Z,99.90
2019-05-23T02:20:57.505Z,99.90
2019-05-23T02:23:28.194Z,99.90
2019-05-23T02:25:57.892Z,99.90
2019-05-23T02:28:27.772Z,99.90
2019-05-23T02:30:58.280Z,99.90
2019-05-23T02:33:28.385Z,99.90
2019-05-23T02:35:58.967Z,99.90
2019-05-23T02:38:44.147Z,99.90
2019-05-23T02:41:20.820Z,99.90
2019-05-23T02:43:51.815Z,99.90
2019-05-23T02:46:25.334Z,99.90
2019-05-23T02:49:04.379Z,99.90
2019-05-23T02:51:37.123Z,99.90
2019-05-23T02:54:09.676Z,99.90
2019-05-23T02:56:39.985Z,99.90
2019-05-23T02:59:35.444Z,99.90
2019-05-23T03:02:30.375Z,99.90
2019-05-23T03:05:00.380Z,99.90
2019-05-23T03:07:33.199Z,99.90
2019-05-23T03:10:04.339Z,99.90
2019-05-23T03:12:35.976Z,99.90
2019-05-23T03:15:08.496Z,99.90
2019-05-23T03:17:39.582Z,99.90
2019-05-23T03:20:10.446Z,99.90
2019-05-23T03:22:48.609Z,99.90
2019-05-23T03:25:30.281Z,99.90
2019-05-23T03:28:01.962Z,99.90
2019-05-23T03:30:38.704Z,99.90
2019-05-23T03:33:10.319Z,99.90
2019-05-23T03:35:41.395Z,99.90
2019-05-23T03:38:11.118Z,99.90
2019-05-23T03:40:41.273Z,99.90
2019-05-23T03:43:11.637Z,99.90
2019-05-23T03:45:43.919Z,99.90
2019-05-23T03:48:13.692Z,99.90
2019-05-23T03:50:44.306Z,99.90
2019-05-23T03:53:14.827Z,99.90
2019-05-23T03:55:47.708Z,99.90
2019-05-23T03:58:18.735Z,99.90
2019-05-23T04:00:52.817Z,99.90
2019-05-23T04:03:25.847Z,99.90
2019-05-23T04:05:57.121Z,99.90
2019-05-23T04:08:28.198Z,99.90
2019-05-23T04:10:58.105Z,99.90
2019-05-23T04:13:27.574Z,99.90
2019-05-23T04:15:57.026Z,99.90
2019-05-23T04:18:26.925Z,99.90
2019-05-23T04:20:56.764Z,99.90
2019-05-23T04:23:26.954Z,99.90
2019-05-23T04:25:56.837Z,99.90
2019-05-23T04:28:27.050Z,99.90
2019-05-23T04:30:57.744Z,99.90
2019-05-23T04:33:27.288Z,99.90
2019-05-23T04:35:57.714Z,99.90
2019-05-23T04:38:27.931Z,99.90
2019-05-23T04:40:57.749Z,99.90
2019-05-23T04:43:28.311Z,99.90
2019-05-23T04:45:58.753Z,99.90
2019-05-23T04:48:29.316Z,99.90
2019-05-23T04:51:00.696Z,99.90
2019-05-23T04:53:30.701Z,99.90
2019-05-23T04:56:00.825Z,99.90
2019-05-23T04:58:30.684Z,99.90
2019-05-23T05:01:01.361Z,99.90
2019-05-23T05:03:32.841Z,99.90
2019-05-23T05:06:04.057Z,99.90
2019-05-23T05:08:33.686Z,99.90
2019-05-23T05:11:03.150Z,99.90
2019-05-23T05:13:34.234Z,99.90
2019-05-23T05:16:03.634Z,99.90
2019-05-23T05:18:33.504Z,99.90
2019-05-23T05:21:03.059Z,99.90
2019-05-23T05:23:32.397Z,99.90
2019-05-23T05:26:01.930Z,99.90
2019-05-23T05:28:31.334Z,99.90
2019-05-23T05:31:00.893Z,99.90
2019-05-23T05:33:31.040Z,99.90
2019-05-23T05:36:01.475Z,99.90
2019-05-23T05:38:31.878Z,99.90
2019-05-23T05:41:01.839Z,99.90
2019-05-23T05:43:31.575Z,99.90
2019-05-23T05:46:01.877Z,99.90
2019-05-23T05:48:32.261Z,99.90
2019-05-23T05:51:02.458Z,99.90
2019-05-23T05:53:32.442Z,99.90
2019-05-23T05:56:02.422Z,99.90
2019-05-23T05:58:32.647Z,99.90
2019-05-23T06:01:07.283Z,99.90
2019-05-23T06:03:36.649Z,99.90
2019-05-23T06:06:22.806Z,99.90
2019-05-23T06:08:54.089Z,99.90
2019-05-23T06:11:23.487Z,99.90
2019-05-23T06:13:53.172Z,99.90
2019-05-23T06:16:22.668Z,99.90
2019-05-23T06:18:52.036Z,99.90
2019-05-23T06:21:26.320Z,99.90
2019-05-23T06:23:55.852Z,99.90
2019-05-23T06:26:25.157Z,99.90
2019-05-23T06:28:54.493Z,99.90
2019-05-23T06:31:24.584Z,99.90
2019-05-23T06:33:54.087Z,99.90
2019-05-23T06:36:23.653Z,99.90
2019-05-23T06:38:53.300Z,99.90
2019-05-23T06:41:22.986Z,99.90
2019-05-23T06:43:53.324Z,99.90
2019-05-23T06:46:23.120Z,99.90
2019-05-23T06:48:52.563Z,99.90
2019-05-23T06:51:22.684Z,99.90
2019-05-23T06:53:53.051Z,99.80
2019-05-23T06:56:23.710Z,99.40
2019-05-23T06:58:55.636Z,99.50
2019-05-23T07:01:25.140Z,99.30
2019-05-23T07:03:54.494Z,99.00
2019-05-23T07:06:25.225Z,99.80
2019-05-23T07:08:54.712Z,98.70
2019-05-23T07:11:24.590Z,98.20
2019-05-23T07:13:54.881Z,98.70
2019-05-23T07:16:24.402Z,98.10
2019-05-23T07:18:53.729Z,97.80
2019-05-23T07:21:23.330Z,97.90
2019-05-23T07:23:52.735Z,96.00
2019-05-23T07:26:22.484Z,95.80
2019-05-23T07:28:52.161Z,96.00
2019-05-23T07:31:21.751Z,95.70
2019-05-23T07:34:00.935Z,95.50
2019-05-23T07:36:22.208Z,95.40
2019-05-23T07:38:51.651Z,94.00
2019-05-23T07:41:21.104Z,93.00
2019-05-23T07:43:50.593Z,92.90
2019-05-23T07:46:19.975Z,94.00
2019-05-23T07:48:49.299Z,93.10
2019-05-23T07:51:18.817Z,93.20
2019-05-23T07:53:52.555Z,92.40
2019-05-23T07:56:23.750Z,93.00
2019-05-23T07:58:53.103Z,92.70
2019-05-23T08:01:30.362Z,90.80
2019-05-23T08:04:18.027Z,90.30
2019-05-23T08:06:32.538Z,91.20
2019-05-23T08:09:04.166Z,87.90
2019-05-23T08:11:33.525Z,87.80
2019-05-23T08:14:03.069Z,88.30
2019-05-23T08:16:32.783Z,84.00
2019-05-23T08:19:02.147Z,84.60
2019-05-23T08:21:34.785Z,84.60
2019-05-23T08:24:04.572Z,84.90
2019-05-23T08:26:35.454Z,84.50
2019-05-23T08:29:24.801Z,83.90
2019-05-23T08:31:36.356Z,75.30
2019-05-23T08:34:06.221Z,75.90
2019-05-23T08:36:36.501Z,76.90
2019-05-23T08:39:08.527Z,77.80
2019-05-23T08:41:38.468Z,77.80
2019-05-23T08:44:11.415Z,74.10
2019-05-23T08:46:40.730Z,69.70
2019-05-23T08:49:10.969Z,73.90
2019-05-23T08:51:40.647Z,67.50
2019-05-23T08:54:10.207Z,64.00
2019-05-23T08:56:39.693Z,66.60
2019-05-23T08:59:10.651Z,63.00
2019-05-23T09:01:40.075Z,64.50
2019-05-23T09:04:10.192Z,62.60
2019-05-23T09:06:39.581Z,60.90
2019-05-23T09:09:28.466Z,58.40
2019-05-23T09:11:42.113Z,59.60
2019-05-23T09:14:11.436Z,61.90
2019-05-23T09:16:40.860Z,58.00
2019-05-23T09:19:10.244Z,55.50
2019-05-23T09:21:39.531Z,56.00
2019-05-23T09:24:09.676Z,55.00
2019-05-23T09:26:39.445Z,53.00
2019-05-23T09:29:08.907Z,56.50
2019-05-23T09:31:39.040Z,55.90
2019-05-23T09:34:08.454Z,56.40
2019-05-23T09:36:37.793Z,54.90
2019-05-23T09:39:08.950Z,51.80
2019-05-23T09:41:38.267Z,53.10
2019-05-23T09:44:08.439Z,54.20
2019-05-23T09:46:38.046Z,51.20
2019-05-23T09:49:11.116Z,49.40
2019-05-23T09:51:38.545Z,49.50
2019-05-23T09:54:07.920Z,52.50
2019-05-23T09:56:38.642Z,50.90
2019-05-23T09:59:08.221Z,49.90
2019-05-23T10:01:37.560Z,49.40
2019-05-23T10:04:07.687Z,51.70
2019-05-23T10:06:37.096Z,51.50
2019-05-23T10:09:08.155Z,49.30
2019-05-23T10:11:37.475Z,50.70
2019-05-23T10:14:08.544Z,51.50
2019-05-23T10:16:38.247Z,51.50
2019-05-23T10:19:07.627Z,48.10
2019-05-23T10:21:36.937Z,49.50
2019-05-23T10:24:06.654Z,50.00
2019-05-23T10:26:36.346Z,49.30
2019-05-23T10:29:05.931Z,48.90
2019-05-23T10:31:35.237Z,46.80
2019-05-23T10:34:04.810Z,46.90
2019-05-23T10:36:34.155Z,47.00
2019-05-23T10:39:05.173Z,45.20
2019-05-23T10:41:34.066Z,49.20
2019-05-23T10:44:03.478Z,48.80
2019-05-23T10:46:33.233Z,48.20
2019-05-23T10:49:02.651Z,45.90
2019-05-23T10:51:32.222Z,46.10
2019-05-23T10:54:01.578Z,46.00
2019-05-23T10:56:30.918Z,44.10
2019-05-23T10:59:00.296Z,48.60
2019-05-23T11:01:30.047Z,47.80
2019-05-23T11:03:59.498Z,50.60
2019-05-23T11:06:28.826Z,46.70
2019-05-23T11:08:58.411Z,47.70
2019-05-23T11:11:28.015Z,47.80
2019-05-23T11:13:57.713Z,48.70
2019-05-23T11:16:27.821Z,50.60
2019-05-23T11:18:57.506Z,48.50
2019-05-23T11:21:27.200Z,45.10
2019-05-23T11:23:57.181Z,48.30
2019-05-23T11:26:26.584Z,48.30
2019-05-23T11:28:56.251Z,46.60
2019-05-23T11:31:25.746Z,47.90
2019-05-23T11:33:55.204Z,45.80
2019-05-23T11:36:35.731Z,48.50
2019-05-23T11:38:56.163Z,48.40
2019-05-23T11:41:25.773Z,49.60
2019-05-23T11:43:55.162Z,47.60
2019-05-23T11:46:32.314Z,46.20
2019-05-23T11:49:02.026Z,47.00
2019-05-23T11:51:31.437Z,46.60
2019-05-23T11:54:08.140Z,46.30
2019-05-23T11:56:33.050Z,47.50
2019-05-23T11:59:02.594Z,47.90
2019-05-23T12:01:34.276Z,50.60
2019-05-23T12:04:05.384Z,51.00
2019-05-23T12:06:53.586Z,50.70
2019-05-23T12:09:08.762Z,49.50
2019-05-23T12:11:42.661Z,49.00
2019-05-23T12:14:11.160Z,47.40
2019-05-23T12:16:40.825Z,47.00
2019-05-23T12:19:10.671Z,46.00
2019-05-23T12:21:40.066Z,45.60
2019-05-23T12:24:09.549Z,47.80
2019-05-23T12:26:39.125Z,46.60
2019-05-23T12:29:08.448Z,45.60
2019-05-23T12:31:37.763Z,44.10
2019-05-23T12:34:08.697Z,44.60
2019-05-23T12:36:38.003Z,44.40
2019-05-23T12:39:08.637Z,44.70
2019-05-23T12:41:38.152Z,42.70
2019-05-23T12:44:07.828Z,42.30
2019-05-23T12:46:50.145Z,41.50
2019-05-23T12:49:36.401Z,42.50
2019-05-23T12:52:07.216Z,42.50
2019-05-23T12:54:37.788Z,41.60
2019-05-23T12:57:07.259Z,40.40
2019-05-23T12:59:36.546Z,39.20
2019-05-23T13:02:07.500Z,39.30
2019-05-23T13:04:36.850Z,39.50
2019-05-23T13:07:06.794Z,38.60
2019-05-23T13:09:36.343Z,39.40
2019-05-23T13:12:05.748Z,40.70
2019-05-23T13:14:35.203Z,39.80
2019-05-23T13:17:04.694Z,40.90
2019-05-23T13:19:34.768Z,41.90
2019-05-23T13:22:04.399Z,40.60
2019-05-23T13:24:51.218Z,41.60
2019-05-23T13:27:04.950Z,42.90
2019-05-23T13:29:34.618Z,40.20
2019-05-23T13:32:05.082Z,39.60
2019-05-23T13:34:33.991Z,37.90
2019-05-23T13:37:03.635Z,38.20
2019-05-23T13:39:33.324Z,38.60
2019-05-23T13:42:02.831Z,39.50
2019-05-23T13:44:35.473Z,42.00
2019-05-23T13:47:03.600Z,41.20
2019-05-23T13:49:33.532Z,39.90
2019-05-23T13:52:02.899Z,39.60
2019-05-23T13:54:36.145Z,40.00
2019-05-23T13:57:05.464Z,39.50
2019-05-23T13:59:34.922Z,36.20
2019-05-23T14:02:06.384Z,36.80
2019-05-23T14:04:35.964Z,37.60
2019-05-23T14:07:07.157Z,35.90
2019-05-23T14:09:37.656Z,36.30
2019-05-23T14:12:20.881Z,35.90
2019-05-23T14:14:38.703Z,34.90
2019-05-23T14:17:15.810Z,34.90
2019-05-23T14:19:45.314Z,35.70
2019-05-23T14:22:14.954Z,35.20
2019-05-23T14:24:44.371Z,38.00
2019-05-23T14:27:17.991Z,36.60
2019-05-23T14:29:47.490Z,37.80
2019-05-23T14:32:21.297Z,39.50
2019-05-23T14:34:52.586Z,37.90
2019-05-23T14:37:23.594Z,37.30
2019-05-23T14:39:54.565Z,37.70
2019-05-23T14:42:31.337Z,37.40
2019-05-23T14:45:00.669Z,37.80
2019-05-23T14:47:53.507Z,37.30
2019-05-23T14:50:31.815Z,36.90
2019-05-23T14:53:02.832Z,38.90
2019-05-23T14:55:32.936Z,40.90
2019-05-23T14:58:02.747Z,40.20
2019-05-23T15:00:32.986Z,38.10
2019-05-23T15:03:03.138Z,37.60
2019-05-23T15:05:32.522Z,37.90
2019-05-23T15:08:01.960Z,38.80
2019-05-23T15:10:32.180Z,39.30
2019-05-23T15:13:01.526Z,39.20
2019-05-23T15:15:30.825Z,39.80
2019-05-23T15:18:01.859Z,40.60
2019-05-23T15:20:32.062Z,40.80
2019-05-23T15:23:01.558Z,42.80
2019-05-23T15:25:31.107Z,41.90
2019-05-23T15:28:00.414Z,43.30
2019-05-23T15:30:30.242Z,44.80
2019-05-23T15:32:59.600Z,44.20
2019-05-23T15:35:30.163Z,44.40
2019-05-23T15:37:59.473Z,43.80
2019-05-23T15:40:28.930Z,43.50
2019-05-23T15:42:58.258Z,42.90
2019-05-23T15:45:27.918Z,42.40
2019-05-23T15:47:57.285Z,42.50
2019-05-23T15:50:28.217Z,43.70
2019-05-23T15:52:59.274Z,41.40
2019-05-23T15:55:29.498Z,41.70
2019-05-23T15:58:03.307Z,42.30
2019-05-23T16:00:56.189Z,42.90
2019-05-23T16:03:41.778Z,42.90
2019-05-23T16:06:13.383Z,44.20
2019-05-23T16:08:42.770Z,44.00
2019-05-23T16:11:12.407Z,42.90
2019-05-23T16:13:41.757Z,42.40
2019-05-23T16:16:11.610Z,44.70
2019-05-23T16:18:41.691Z,44.10
2019-05-23T16:21:13.612Z,41.90
2019-05-23T16:23:42.968Z,43.90
2019-05-23T16:26:12.380Z,42.00
2019-05-23T16:28:42.179Z,43.00
2019-05-23T16:31:12.385Z,41.20
2019-05-23T16:33:42.532Z,41.40
2019-05-23T16:36:12.721Z,42.50
2019-05-23T16:38:42.746Z,42.30
2019-05-23T16:41:12.992Z,42.60
2019-05-23T16:43:43.216Z,42.40
2019-05-23T16:46:13.235Z,42.50
2019-05-23T16:48:43.453Z,41.60
2019-05-23T16:51:13.599Z,42.10
2019-05-23T16:53:43.967Z,42.50
2019-05-23T16:56:18.023Z,41.90
2019-05-23T16:58:51.630Z,42.40
2019-05-23T17:01:25.089Z,43.30
2019-05-23T17:04:10.909Z,43.20
2019-05-23T17:06:58.369Z,43.90
2019-05-23T17:09:31.687Z,44.50
2019-05-23T17:12:18.208Z,43.90
2019-05-23T17:14:51.900Z,44.30
2019-05-23T17:17:48.881Z,43.40
2019-05-23T17:20:00.239Z,43.60
2019-05-23T17:22:47.230Z,42.70
2019-05-23T17:25:18.261Z,43.60
2019-05-23T17:27:52.172Z,42.60
2019-05-23T17:30:35.330Z,42.50
2019-05-23T17:33:06.396Z,42.90
2019-05-23T17:35:36.255Z,43.70
2019-05-23T17:38:05.673Z,42.30
2019-05-23T17:40:35.088Z,42.80
2019-05-23T17:43:04.701Z,42.80
2019-05-23T17:45:34.071Z,43.20
2019-05-23T17:48:03.612Z,43.70
2019-05-23T17:50:34.962Z,42.60
2019-05-23T17:53:03.316Z,43.20
2019-05-23T17:55:33.394Z,42.30
2019-05-23T17:58:02.781Z,42.10
2019-05-23T18:00:36.270Z,42.70
2019-05-23T18:03:06.138Z,41.50
2019-05-23T18:05:36.196Z,42.40
2019-05-23T18:08:08.104Z,41.40
2019-05-23T18:10:44.830Z,41.70
2019-05-23T18:13:09.314Z,41.70
2019-05-23T18:15:38.627Z,42.50
2019-05-23T18:18:08.407Z,43.60
2019-05-23T18:20:39.942Z,43.60
2019-05-23T18:23:10.317Z,44.10
2019-05-23T18:25:39.865Z,44.50
2019-05-23T18:28:10.603Z,43.80
2019-05-23T18:30:46.481Z,44.40
2019-05-23T18:33:17.971Z,45.50
2019-05-23T18:35:49.005Z,46.10
2019-05-23T18:38:20.086Z,45.30
2019-05-23T18:41:02.832Z,45.80
2019-05-23T18:43:23.736Z,47.00
2019-05-23T18:45:54.745Z,48.40
2019-05-23T18:48:25.061Z,47.90
2019-05-23T18:50:55.209Z,47.80
2019-05-23T18:53:24.680Z,48.40
2019-05-23T18:55:54.312Z,48.00
2019-05-23T18:58:23.755Z,47.90
2019-05-23T19:00:57.825Z,48.90
2019-05-23T19:03:27.420Z,48.90
2019-05-23T19:05:57.811Z,50.10
2019-05-23T19:08:27.158Z,49.60
2019-05-23T19:10:56.557Z,48.90
2019-05-23T19:13:27.722Z,49.70
2019-05-23T19:15:57.187Z,51.10
2019-05-23T19:18:26.682Z,51.30
2019-05-23T19:20:56.813Z,51.90
2019-05-23T19:23:26.260Z,51.20
2019-05-23T19:25:56.048Z,52.50
2019-05-23T19:28:26.325Z,52.30
2019-05-23T19:30:55.955Z,52.10
2019-05-23T19:33:25.595Z,52.80
2019-05-23T19:35:55.815Z,54.30
2019-05-23T19:38:25.211Z,55.30
2019-05-23T19:40:55.323Z,55.40
2019-05-23T19:43:27.291Z,55.50
2019-05-23T19:45:56.770Z,56.60
2019-05-23T19:48:26.742Z,57.40
2019-05-23T19:50:56.062Z,58.40
2019-05-23T19:53:25.369Z,59.40
2019-05-23T19:55:55.087Z,59.90
2019-05-23T19:58:25.952Z,61.50
2019-05-23T20:00:55.906Z,63.00
2019-05-23T20:03:25.402Z,64.80
2019-05-23T20:05:57.210Z,66.70
2019-05-23T20:08:27.469Z,65.50
2019-05-23T20:10:57.045Z,65.90
2019-05-23T20:13:28.236Z,68.20
2019-05-23T20:15:57.589Z,66.30
2019-05-23T20:18:26.955Z,69.10
2019-05-23T20:20:56.504Z,69.90
2019-05-23T20:23:26.784Z,71.80
2019-05-23T20:25:57.183Z,73.30
2019-05-23T20:28:27.067Z,72.90
2019-05-23T20:30:57.592Z,72.30
2019-05-23T20:33:28.106Z,75.50
2019-05-23T20:35:58.921Z,76.50
2019-05-23T20:38:28.244Z,79.30
2019-05-23T20:40:58.039Z,80.10
2019-05-23T20:43:28.482Z,79.60
2019-05-23T20:45:58.427Z,80.90
2019-05-23T20:48:28.883Z,79.30
2019-05-23T20:50:58.598Z,79.60
2019-05-23T20:53:28.701Z,80.50
2019-05-23T20:55:59.012Z,80.90
2019-05-23T20:58:29.073Z,83.30
2019-05-23T21:01:03.689Z,84.00
2019-05-23T21:03:35.497Z,84.80
2019-05-23T21:06:05.707Z,86.70
2019-05-23T21:08:36.607Z,87.10
2019-05-23T21:11:06.023Z,87.90
2019-05-23T21:13:35.316Z,86.10
2019-05-23T21:16:05.265Z,86.10
2019-05-23T21:18:34.589Z,86.60
2019-05-23T21:21:04.055Z,86.30
2019-05-23T21:23:33.386Z,87.70
2019-05-23T21:26:04.335Z,88.10
2019-05-23T21:28:33.726Z,89.90
2019-05-23T21:31:05.063Z,88.50
2019-05-23T21:33:34.358Z,88.20
2019-05-23T21:36:03.887Z,88.90
2019-05-23T21:38:33.317Z,89.30
2019-05-23T21:41:03.547Z,89.70
2019-05-23T21:43:33.142Z,90.10
2019-05-23T21:46:02.739Z,90.30
2019-05-23T21:48:32.251Z,90.90
2019-05-23T21:51:02.398Z,90.70
2019-05-23T21:53:32.578Z,90.90
2019-05-23T21:56:02.702Z,91.30
2019-05-23T21:58:32.997Z,91.80
2019-05-23T22:01:06.261Z,92.20
2019-05-23T22:03:54.225Z,92.30
2019-05-23T22:06:42.810Z,92.70
2019-05-23T22:09:14.047Z,92.40
2019-05-23T22:11:42.709Z,92.50
2019-05-23T22:14:12.055Z,92.90
2019-05-23T22:16:41.365Z,93.20
2019-05-23T22:19:12.337Z,94.20
2019-05-23T22:21:41.629Z,93.90
2019-05-23T22:24:11.776Z,94.10
2019-05-23T22:26:41.093Z,93.60
2019-05-23T22:29:10.521Z,93.60
2019-05-23T22:31:39.825Z,93.90
2019-05-23T22:34:13.779Z,94.90
2019-05-23T22:36:43.057Z,94.90
2019-05-23T22:39:12.349Z,94.70
2019-05-23T22:41:41.658Z,94.50
2019-05-23T22:44:11.896Z,94.80
2019-05-23T22:46:41.818Z,94.60
2019-05-23T22:49:11.209Z,94.80
2019-05-23T22:51:40.510Z,95.20
2019-05-23T22:54:09.979Z,95.50
2019-05-23T22:56:39.266Z,95.50
2019-05-23T22:59:08.772Z,95.70
2019-05-23T23:01:38.121Z,95.50
2019-05-23T23:04:07.850Z,95.90
2019-05-23T23:06:37.300Z,96.30
2019-05-23T23:09:07.833Z,96.40
2019-05-23T23:11:37.888Z,96.50
2019-05-23T23:14:08.058Z,96.70
2019-05-23T23:16:38.093Z,96.80
2019-05-23T23:19:08.482Z,97.00
2019-05-23T23:21:38.889Z,96.90
2019-05-23T23:24:08.666Z,97.20
2019-05-23T23:26:38.769Z,97.00
2019-05-23T23:29:08.965Z,97.50
2019-05-23T23:31:39.173Z,98.00
2019-05-23T23:34:09.302Z,97.60
2019-05-23T23:36:39.608Z,97.90
2019-05-23T23:39:10.074Z,97.90
2019-05-23T23:41:39.743Z,97.90
2019-05-23T23:44:11.398Z,97.70
2019-05-23T23:46:58.874Z,97.50
2019-05-23T23:49:46.293Z,97.50
2019-05-23T23:52:33.675Z,97.40
2019-05-23T23:55:21.322Z,97.80
2019-05-23T23:57:59.108Z,98.10
